createdAt,value
2019-03-23T00:01:49.436Z,15.23
2019-03-23T00:04:22.267Z,19.00
2019-03-23T00:06:54.426Z,21.80
2019-03-23T00:09:26.533Z,21.37
2019-03-23T00:11:58.883Z,19.77
2019-03-23T00:14:30.728Z,19.62
2019-03-23T00:17:02.903Z,18.98
2019-03-23T00:19:35.232Z,26.12
2019-03-23T00:22:07.501Z,23.52
2019-03-23T00:24:39.717Z,22.67
2019-03-23T00:27:11.720Z,20.00
2019-03-23T00:29:43.899Z,20.68
2019-03-23T00:32:15.788Z,19.07
2019-03-23T00:34:49.877Z,18.50
2019-03-23T00:37:21.895Z,18.02
2019-03-23T00:39:53.761Z,15.03
2019-03-23T00:42:27.117Z,15.90
2019-03-23T00:44:58.958Z,22.07
2019-03-23T00:47:31.073Z,23.02
2019-03-23T00:50:03.575Z,18.80
2019-03-23T00:52:35.686Z,15.90
2019-03-23T00:55:07.829Z,18.92
2019-03-23T00:57:39.971Z,19.05
2019-03-23T01:00:12.583Z,18.42
2019-03-23T01:02:44.852Z,18.42
2019-03-23T01:05:17.117Z,17.37
2019-03-23T01:07:49.449Z,21.95
2019-03-23T01:10:21.460Z,20.48
2019-03-23T01:12:53.720Z,25.52
2019-03-23T01:15:25.787Z,24.80
2019-03-23T01:17:57.966Z,24.45
2019-03-23T01:20:30.013Z,26.03
2019-03-23T01:23:02.406Z,26.02
2019-03-23T01:25:34.475Z,23.18
2019-03-23T01:28:06.701Z,21.97
2019-03-23T01:30:38.634Z,21.27
2019-03-23T01:33:10.722Z,20.90
2019-03-23T01:35:42.843Z,21.25
2019-03-23T01:38:14.960Z,21.12
2019-03-23T01:40:46.974Z,20.80
2019-03-23T01:43:19.104Z,21.52
2019-03-23T01:45:51.437Z,23.22
2019-03-23T01:48:23.394Z,23.70
2019-03-23T01:50:55.606Z,21.93
2019-03-23T01:53:27.586Z,22.48
2019-03-23T01:56:00.047Z,24.95
2019-03-23T01:58:33.423Z,24.67
2019-03-23T02:01:05.603Z,24.80
2019-03-23T02:03:37.666Z,24.00
2019-03-23T02:06:09.859Z,24.47
2019-03-23T02:08:42.114Z,23.18
2019-03-23T02:11:15.699Z,21.80
2019-03-23T02:13:47.838Z,23.30
2019-03-23T02:16:19.948Z,20.37
2019-03-23T02:18:52.013Z,22.10
2019-03-23T02:21:24.039Z,25.62
2019-03-23T02:23:55.989Z,26.12
2019-03-23T02:26:27.886Z,20.20
2019-03-23T02:28:59.900Z,25.15
2019-03-23T02:31:31.861Z,23.40
2019-03-23T02:34:04.263Z,23.52
2019-03-23T02:36:36.233Z,21.80
2019-03-23T02:39:09.283Z,22.00
2019-03-23T02:41:41.397Z,21.90
2019-03-23T02:44:14.387Z,20.93
2019-03-23T02:46:46.719Z,20.50
2019-03-23T02:49:18.923Z,19.55
2019-03-23T02:51:50.996Z,20.43
2019-03-23T02:54:23.582Z,20.32
2019-03-23T02:56:55.735Z,20.90
2019-03-23T02:59:27.925Z,20.40
2019-03-23T03:02:00.076Z,20.40
2019-03-23T03:04:32.323Z,19.85
2019-03-23T03:07:04.195Z,20.52
2019-03-23T03:09:36.142Z,21.97
2019-03-23T03:12:08.152Z,20.62
2019-03-23T03:14:40.885Z,22.52
2019-03-23T03:17:13.023Z,22.50
2019-03-23T03:19:45.702Z,21.20
2019-03-23T03:22:18.281Z,21.55
2019-03-23T03:24:50.463Z,21.73
2019-03-23T03:27:22.457Z,21.73
2019-03-23T03:29:54.431Z,21.93
2019-03-23T03:32:26.455Z,22.55
2019-03-23T03:34:58.398Z,22.17
2019-03-23T03:37:30.679Z,22.00
2019-03-23T03:40:02.832Z,23.40
2019-03-23T03:42:35.085Z,22.27
2019-03-23T03:45:07.464Z,23.00
2019-03-23T03:47:41.268Z,25.48
2019-03-23T03:50:13.172Z,26.17
2019-03-23T03:52:46.068Z,25.43
2019-03-23T03:55:18.243Z,23.15
2019-03-23T03:57:50.775Z,21.15
2019-03-23T04:00:23.468Z,23.15
2019-03-23T04:02:55.660Z,21.87
2019-03-23T04:05:27.756Z,20.37
2019-03-23T04:08:11.212Z,21.57
2019-03-23T04:10:34.744Z,22.10
2019-03-23T04:13:06.896Z,21.05
2019-03-23T04:15:39.369Z,21.10
2019-03-23T04:18:11.738Z,21.68
2019-03-23T04:20:44.491Z,23.03
2019-03-23T04:23:16.662Z,21.33
2019-03-23T04:25:48.694Z,22.45
2019-03-23T04:28:20.949Z,22.80
2019-03-23T04:30:53.102Z,24.25
2019-03-23T04:33:25.259Z,23.67
2019-03-23T04:35:57.431Z,24.35
2019-03-23T04:38:30.753Z,23.67
2019-03-23T04:41:02.789Z,23.07
2019-03-23T04:43:35.070Z,23.12
2019-03-23T04:46:07.233Z,24.87
2019-03-23T04:48:39.782Z,25.57
2019-03-23T04:51:12.252Z,24.02
2019-03-23T04:53:44.281Z,25.10
2019-03-23T04:56:16.340Z,24.37
2019-03-23T04:58:48.522Z,26.00
2019-03-23T05:01:20.704Z,23.93
2019-03-23T05:03:53.081Z,24.40
2019-03-23T05:06:25.276Z,22.70
2019-03-23T05:08:57.669Z,23.25
2019-03-23T05:11:29.905Z,23.18
2019-03-23T05:14:02.032Z,22.07
2019-03-23T05:16:34.139Z,22.73
2019-03-23T05:19:06.196Z,23.47
2019-03-23T05:21:38.388Z,22.45
2019-03-23T05:24:10.604Z,23.10
2019-03-23T05:26:42.557Z,21.10
2019-03-23T05:29:14.798Z,20.82
2019-03-23T05:31:47.049Z,19.73
2019-03-23T05:34:19.374Z,21.07
2019-03-23T05:36:52.018Z,19.87
2019-03-23T05:39:24.140Z,20.30
2019-03-23T05:41:56.568Z,19.67
2019-03-23T05:44:28.739Z,19.35
2019-03-23T05:47:00.916Z,20.20
2019-03-23T05:49:33.033Z,18.27
2019-03-23T05:52:05.177Z,16.32
2019-03-23T05:54:37.266Z,17.25
2019-03-23T05:57:09.577Z,16.70
2019-03-23T05:59:41.650Z,16.77
2019-03-23T06:02:14.103Z,17.37
2019-03-23T06:04:46.870Z,16.67
2019-03-23T06:07:18.871Z,16.87
2019-03-23T06:09:51.059Z,18.40
2019-03-23T06:12:24.266Z,17.75
2019-03-23T06:14:56.361Z,17.52
2019-03-23T06:17:28.505Z,17.45
2019-03-23T06:20:00.901Z,17.02
2019-03-23T06:22:33.113Z,16.27
2019-03-23T06:25:06.449Z,17.37
2019-03-23T06:27:38.584Z,17.15
2019-03-23T06:30:11.246Z,16.77
2019-03-23T06:32:43.479Z,18.50
2019-03-23T06:35:15.581Z,15.53
2019-03-23T06:37:47.653Z,15.93
2019-03-23T06:40:19.815Z,15.32
2019-03-23T06:42:59.632Z,15.40
2019-03-23T06:45:25.841Z,14.47
2019-03-23T06:47:57.971Z,14.83
2019-03-23T06:50:30.138Z,15.95
2019-03-23T06:53:02.165Z,16.85
2019-03-23T06:55:34.510Z,17.00
2019-03-23T06:58:06.540Z,17.30
2019-03-23T07:00:38.448Z,16.48
2019-03-23T07:03:10.558Z,17.73
2019-03-23T07:05:42.835Z,17.30
2019-03-23T07:08:14.697Z,21.90
2019-03-23T07:10:46.692Z,14.95
2019-03-23T07:13:18.852Z,14.43
2019-03-23T07:15:51.296Z,16.17
2019-03-23T07:18:23.835Z,15.18
2019-03-23T07:20:55.889Z,14.63
2019-03-23T07:23:27.890Z,13.05
2019-03-23T07:26:00.045Z,14.80
2019-03-23T07:28:32.280Z,13.50
2019-03-23T07:31:04.719Z,15.35
2019-03-23T07:33:37.165Z,14.75
2019-03-23T07:36:09.560Z,14.30
2019-03-23T07:38:42.477Z,13.30
2019-03-23T07:41:14.589Z,15.23
2019-03-23T07:43:46.679Z,14.33
2019-03-23T07:46:19.056Z,13.32
2019-03-23T07:48:50.906Z,14.00
2019-03-23T07:51:23.246Z,17.10
2019-03-23T07:53:55.284Z,13.68
2019-03-23T07:56:27.303Z,14.65
2019-03-23T07:58:59.749Z,12.82
2019-03-23T08:01:31.760Z,12.98
2019-03-23T08:04:03.807Z,13.95
2019-03-23T08:06:35.728Z,12.98
2019-03-23T08:09:08.163Z,11.78
2019-03-23T08:11:40.319Z,12.13
2019-03-23T08:14:12.435Z,12.73
2019-03-23T08:16:44.848Z,11.55
2019-03-23T08:19:17.118Z,12.50
2019-03-23T08:21:49.316Z,12.75
2019-03-23T08:24:21.378Z,13.85
2019-03-23T08:26:53.875Z,14.15
2019-03-23T08:29:25.957Z,13.83
2019-03-23T08:31:58.220Z,14.25
2019-03-23T08:34:30.442Z,14.58
2019-03-23T08:37:02.621Z,16.07
2019-03-23T08:39:35.152Z,15.85
2019-03-23T08:42:07.201Z,15.83
2019-03-23T08:44:39.344Z,17.55
2019-03-23T08:47:11.544Z,18.65
2019-03-23T08:49:43.837Z,17.98
2019-03-23T08:52:15.996Z,18.65
2019-03-23T08:54:48.156Z,18.25
2019-03-23T08:57:20.171Z,17.70
2019-03-23T08:59:52.355Z,18.90
2019-03-23T09:02:24.560Z,18.95
2019-03-23T09:04:57.020Z,19.70
2019-03-23T09:07:29.873Z,20.23
2019-03-23T09:10:02.036Z,17.85
2019-03-23T09:12:34.293Z,19.17
2019-03-23T09:15:07.135Z,19.70
2019-03-23T09:17:39.156Z,18.50
2019-03-23T09:20:12.691Z,18.62
2019-03-23T09:22:45.536Z,18.80
2019-03-23T09:25:17.886Z,20.43
2019-03-23T09:27:49.952Z,19.60
2019-03-23T09:30:22.174Z,15.75
2019-03-23T09:32:54.181Z,18.30
2019-03-23T09:35:26.972Z,18.80
2019-03-23T09:37:59.117Z,19.50
2019-03-23T09:40:31.065Z,18.45
2019-03-23T09:43:03.165Z,18.15
2019-03-23T09:45:35.183Z,18.55
2019-03-23T09:48:07.236Z,18.57
2019-03-23T09:50:39.216Z,18.67
2019-03-23T09:53:11.268Z,17.85
2019-03-23T09:55:43.263Z,16.77
2019-03-23T09:58:15.377Z,19.45
2019-03-23T10:00:47.801Z,19.20
2019-03-23T10:03:20.139Z,20.52
2019-03-23T10:05:52.444Z,18.80
2019-03-23T10:08:24.892Z,19.17
2019-03-23T10:10:56.921Z,19.70
2019-03-23T10:13:29.964Z,16.42
2019-03-23T10:16:02.120Z,18.05
2019-03-23T10:18:34.083Z,16.62
2019-03-23T10:21:06.412Z,18.98
2019-03-23T10:23:38.479Z,18.52
2019-03-23T10:26:10.719Z,17.07
2019-03-23T10:28:42.957Z,17.57
2019-03-23T10:31:15.063Z,20.80
2019-03-23T10:33:47.064Z,17.10
2019-03-23T10:36:19.193Z,17.57
2019-03-23T10:38:51.252Z,18.35
2019-03-23T10:41:23.558Z,17.30
2019-03-23T10:43:55.509Z,16.60
2019-03-23T10:46:27.911Z,17.20
2019-03-23T10:49:00.097Z,18.73
2019-03-23T10:51:32.134Z,17.32
2019-03-23T10:54:04.456Z,17.42
2019-03-23T10:56:36.427Z,18.92
2019-03-23T10:59:09.156Z,15.80
2019-03-23T11:01:41.383Z,18.25
2019-03-23T11:04:13.417Z,17.75
2019-03-23T11:06:45.540Z,17.15
2019-03-23T11:09:17.483Z,17.07
2019-03-23T11:11:49.875Z,18.10
2019-03-23T11:14:21.831Z,17.23
2019-03-23T11:16:54.039Z,18.20
2019-03-23T11:19:26.226Z,16.97
2019-03-23T11:21:58.452Z,15.88
2019-03-23T11:24:31.596Z,16.35
2019-03-23T11:27:03.832Z,17.98
2019-03-23T11:29:35.892Z,18.07
2019-03-23T11:32:08.204Z,16.57
2019-03-23T11:34:40.207Z,15.98
2019-03-23T11:37:12.483Z,17.60
2019-03-23T11:39:44.654Z,16.00
2019-03-23T11:42:17.623Z,16.42
2019-03-23T11:44:49.974Z,17.05
2019-03-23T11:47:22.042Z,15.38
2019-03-23T11:49:54.302Z,17.07
2019-03-23T11:52:26.284Z,16.57
2019-03-23T11:54:58.809Z,16.10
2019-03-23T11:57:30.829Z,16.40
2019-03-23T12:00:02.750Z,17.15
2019-03-23T12:02:36.388Z,17.57
2019-03-23T12:05:10.997Z,18.00
2019-03-23T12:07:43.136Z,15.55
2019-03-23T12:10:15.602Z,17.85
2019-03-23T12:12:47.927Z,18.67
2019-03-23T12:15:20.186Z,17.23
2019-03-23T12:17:52.433Z,17.25
2019-03-23T12:20:24.394Z,19.80
2019-03-23T12:22:56.577Z,17.77
2019-03-23T12:25:28.891Z,16.85
2019-03-23T12:28:00.902Z,16.62
2019-03-23T12:30:33.363Z,18.32
2019-03-23T12:33:05.853Z,18.40
2019-03-23T12:35:37.947Z,18.40
2019-03-23T12:38:10.180Z,17.82
2019-03-23T12:40:42.467Z,17.57
2019-03-23T12:43:14.610Z,18.85
2019-03-23T12:45:46.919Z,18.57
2019-03-23T12:48:19.336Z,19.12
2019-03-23T12:50:51.622Z,17.40
2019-03-23T12:53:23.581Z,20.05
2019-03-23T12:55:55.677Z,18.80
2019-03-23T12:58:27.709Z,18.10
2019-03-23T13:00:59.948Z,18.30
2019-03-23T13:03:31.963Z,19.65
2019-03-23T13:06:04.395Z,18.57
2019-03-23T13:08:37.551Z,19.23
2019-03-23T13:11:09.534Z,20.12
2019-03-23T13:13:41.736Z,16.62
2019-03-23T13:16:13.850Z,17.80
2019-03-23T13:18:45.741Z,18.62
2019-03-23T13:21:19.524Z,18.92
2019-03-23T13:23:51.787Z,20.05
2019-03-23T13:26:24.084Z,18.25
2019-03-23T13:28:56.524Z,18.85
2019-03-23T13:31:28.855Z,17.07
2019-03-23T13:34:00.857Z,18.48
2019-03-23T13:36:32.969Z,17.20
2019-03-23T13:39:07.080Z,18.27
2019-03-23T13:41:46.314Z,17.48
2019-03-23T13:44:18.559Z,18.27
2019-03-23T13:46:51.036Z,19.42
2019-03-23T13:49:23.285Z,19.00
2019-03-23T13:51:55.520Z,19.75
2019-03-23T13:54:27.945Z,19.20
2019-03-23T13:57:00.240Z,19.27
2019-03-23T13:59:32.526Z,21.00
2019-03-23T14:02:04.660Z,21.02
2019-03-23T14:04:36.851Z,19.82
2019-03-23T14:07:09.006Z,19.70
2019-03-23T14:09:41.126Z,18.85
2019-03-23T14:12:13.387Z,18.62
2019-03-23T14:14:45.619Z,20.17
2019-03-23T14:17:17.757Z,19.02
2019-03-23T14:19:50.010Z,19.27
2019-03-23T14:22:21.971Z,19.52
2019-03-23T14:24:56.110Z,18.50
2019-03-23T14:27:28.667Z,17.75
2019-03-23T14:30:00.761Z,18.55
2019-03-23T14:32:33.288Z,18.32
2019-03-23T14:35:05.319Z,16.97
2019-03-23T14:37:37.471Z,16.85
2019-03-23T14:40:09.661Z,15.30
2019-03-23T14:42:41.983Z,18.37
2019-03-23T14:45:14.336Z,18.10
2019-03-23T14:47:47.430Z,16.82
2019-03-23T14:50:20.025Z,17.07
2019-03-23T14:52:52.555Z,15.55
2019-03-23T14:55:25.077Z,14.30
2019-03-23T14:57:57.180Z,12.88
2019-03-23T15:00:34.861Z,13.68
2019-03-23T15:03:07.173Z,14.75
2019-03-23T15:05:39.188Z,12.58
2019-03-23T15:08:11.145Z,12.35
2019-03-23T15:10:43.150Z,12.28
2019-03-23T15:13:15.444Z,11.95
2019-03-23T15:15:48.523Z,13.13
2019-03-23T15:18:20.421Z,11.63
2019-03-23T15:20:53.088Z,12.18
2019-03-23T15:23:25.156Z,15.80
2019-03-23T15:25:57.078Z,13.43
2019-03-23T15:28:29.092Z,12.95
2019-03-23T15:31:01.272Z,12.73
2019-03-23T15:33:33.120Z,11.88
2019-03-23T15:36:05.084Z,13.20
2019-03-23T15:38:37.577Z,12.37
2019-03-23T15:41:09.720Z,11.85
2019-03-23T15:43:41.809Z,13.38
2019-03-23T15:46:14.047Z,12.50
2019-03-23T15:48:46.022Z,12.63
2019-03-23T15:51:18.321Z,14.40
2019-03-23T15:53:50.299Z,12.55
2019-03-23T15:56:22.178Z,13.78
2019-03-23T15:58:54.781Z,11.48
2019-03-23T16:01:26.705Z,12.37
2019-03-23T16:03:58.661Z,11.75
2019-03-23T16:06:30.745Z,11.93
2019-03-23T16:09:04.625Z,12.18
2019-03-23T16:11:36.905Z,13.35
2019-03-23T16:14:08.999Z,12.00
2019-03-23T16:16:40.964Z,12.25
2019-03-23T16:19:13.223Z,12.03
2019-03-23T16:21:45.164Z,9.68
2019-03-23T16:24:17.547Z,11.05
2019-03-23T16:26:49.840Z,11.50
2019-03-23T16:29:22.759Z,12.10
2019-03-23T16:31:55.006Z,11.35
2019-03-23T16:34:26.989Z,12.73
2019-03-23T16:36:59.480Z,20.80
2019-03-23T16:39:33.511Z,24.15
2019-03-23T16:42:05.913Z,23.30
2019-03-23T16:44:37.922Z,22.45
2019-03-23T16:47:10.232Z,22.02
2019-03-23T16:49:42.234Z,23.45
2019-03-23T16:52:14.684Z,23.85
2019-03-23T16:54:46.962Z,23.92
2019-03-23T16:57:18.952Z,26.52
2019-03-23T16:59:51.621Z,25.10
2019-03-23T17:02:23.723Z,23.70
2019-03-23T17:04:55.914Z,24.63
2019-03-23T17:07:28.016Z,25.30
2019-03-23T17:10:00.069Z,26.05
2019-03-23T17:12:32.308Z,24.45
2019-03-23T17:15:05.169Z,24.07
2019-03-23T17:17:37.696Z,22.75
2019-03-23T17:20:10.777Z,22.77
2019-03-23T17:22:42.744Z,20.60
2019-03-23T17:25:14.993Z,19.92
2019-03-23T17:27:47.436Z,22.30
2019-03-23T17:30:19.968Z,23.18
2019-03-23T17:32:52.005Z,22.02
2019-03-23T17:35:24.277Z,20.43
2019-03-23T17:37:56.520Z,19.82
2019-03-23T17:40:28.911Z,18.98
2019-03-23T17:43:05.806Z,18.35
2019-03-23T17:45:34.811Z,17.92
2019-03-23T17:48:06.882Z,16.00
2019-03-23T17:50:39.511Z,17.15
2019-03-23T17:53:11.741Z,16.52
2019-03-23T17:55:43.755Z,19.27
2019-03-23T17:58:16.223Z,15.83
2019-03-23T18:00:48.571Z,24.85
2019-03-23T18:03:20.798Z,22.45
2019-03-23T18:05:53.260Z,15.23
2019-03-23T18:08:25.594Z,15.38
2019-03-23T18:10:58.221Z,14.07
2019-03-23T18:13:30.331Z,14.23
2019-03-23T18:16:02.946Z,15.88
2019-03-23T18:18:35.483Z,16.12
2019-03-23T18:21:07.462Z,15.58
2019-03-23T18:23:39.811Z,14.90
2019-03-23T18:26:13.331Z,12.75
2019-03-23T18:28:45.574Z,10.28
2019-03-23T18:31:17.914Z,8.83
2019-03-23T18:33:50.317Z,8.00
2019-03-23T18:36:23.145Z,7.33
2019-03-23T18:38:55.182Z,7.62
2019-03-23T18:41:27.104Z,8.15
2019-03-23T18:46:30.234Z,7.42
2019-03-23T18:49:02.314Z,8.80
2019-03-23T18:51:34.500Z,7.67
2019-03-23T18:54:06.936Z,19.37
2019-03-23T18:56:39.295Z,9.75
2019-03-23T18:59:12.337Z,9.88
2019-03-23T19:01:44.505Z,13.30
2019-03-23T19:04:16.556Z,8.60
2019-03-23T19:06:48.673Z,11.22
2019-03-23T19:09:20.968Z,9.38
2019-03-23T19:11:52.933Z,9.28
2019-03-23T19:14:25.144Z,8.90
2019-03-23T19:19:28.880Z,9.25
2019-03-23T19:22:01.099Z,12.80
2019-03-23T19:24:32.997Z,11.90
2019-03-23T19:27:05.467Z,9.38
2019-03-23T19:29:37.485Z,9.48
2019-03-23T19:32:09.852Z,10.45
2019-03-23T19:34:44.357Z,9.03
2019-03-23T19:37:16.425Z,7.25
2019-03-23T19:39:48.615Z,9.28
2019-03-23T19:42:20.891Z,9.20
2019-03-23T19:44:53.453Z,7.90
2019-03-23T19:47:25.601Z,8.60
2019-03-23T19:49:57.767Z,9.90
2019-03-23T19:52:29.927Z,8.08
2019-03-23T19:55:02.454Z,9.20
2019-03-23T19:57:34.557Z,10.55
2019-03-23T20:00:07.629Z,11.53
2019-03-23T20:02:39.581Z,14.98
2019-03-23T20:05:12.701Z,12.63
2019-03-23T20:07:45.037Z,12.25
2019-03-23T20:10:18.005Z,10.50
2019-03-23T20:12:50.098Z,9.65
2019-03-23T20:15:22.373Z,10.30
2019-03-23T20:17:54.744Z,9.98
2019-03-23T20:20:26.764Z,9.55
2019-03-23T20:23:00.548Z,8.93
2019-03-23T20:25:32.764Z,8.68
2019-03-23T20:28:05.237Z,8.58
2019-03-23T20:30:37.551Z,10.40
2019-03-23T20:33:19.057Z,9.08
2019-03-23T20:35:43.652Z,9.23
2019-03-23T20:38:15.904Z,8.05
2019-03-23T20:40:48.039Z,8.68
2019-03-23T20:43:20.114Z,7.80
2019-03-23T20:45:52.494Z,9.15
2019-03-23T20:48:24.462Z,8.73
2019-03-23T20:50:56.564Z,8.85
2019-03-23T20:53:29.063Z,8.83
2019-03-23T20:56:01.318Z,8.15
2019-03-23T20:58:33.572Z,10.13
2019-03-23T21:01:06.334Z,10.90
2019-03-23T21:03:38.966Z,11.93
2019-03-23T21:06:12.625Z,12.82
2019-03-23T21:08:44.973Z,10.28
2019-03-23T21:11:17.289Z,10.00
2019-03-23T21:13:49.331Z,10.60
2019-03-23T21:16:21.214Z,11.07
2019-03-23T21:18:53.623Z,10.47
2019-03-23T21:21:25.676Z,11.33
2019-03-23T21:23:58.103Z,10.70
2019-03-23T21:26:30.303Z,10.43
2019-03-23T21:29:02.444Z,9.43
2019-03-23T21:31:34.463Z,9.18
2019-03-23T21:34:06.538Z,9.60
2019-03-23T21:36:38.786Z,10.23
2019-03-23T21:39:11.249Z,10.75
2019-03-23T21:41:43.979Z,10.82
2019-03-23T21:44:16.155Z,10.88
2019-03-23T21:46:48.387Z,13.08
2019-03-23T21:49:20.419Z,13.00
2019-03-23T21:51:52.761Z,11.55
2019-03-23T21:54:25.041Z,10.00
2019-03-23T21:56:57.248Z,11.03
2019-03-23T21:59:29.573Z,10.78
2019-03-23T22:02:01.981Z,12.40
2019-03-23T22:04:34.107Z,10.70
2019-03-23T22:07:06.468Z,10.95
2019-03-23T22:09:39.904Z,12.93
2019-03-23T22:12:12.180Z,14.83
2019-03-23T22:14:45.486Z,14.18
2019-03-23T22:17:17.660Z,12.45
2019-03-23T22:19:50.648Z,11.13
2019-03-23T22:22:23.917Z,11.23
2019-03-23T22:24:56.163Z,11.38
2019-03-23T22:27:28.364Z,11.22
2019-03-23T22:30:00.580Z,10.73
2019-03-23T22:32:33.881Z,11.18
2019-03-23T22:35:07.551Z,11.43
2019-03-23T22:37:39.710Z,11.03
2019-03-23T22:40:12.650Z,11.12
2019-03-23T22:42:44.794Z,10.58
2019-03-23T22:45:17.006Z,11.15
2019-03-23T22:47:49.025Z,13.13
2019-03-23T22:50:21.173Z,14.60
2019-03-23T22:52:53.319Z,11.85
2019-03-23T22:55:25.297Z,11.85
2019-03-23T22:57:57.959Z,12.07
2019-03-23T23:00:47.627Z,11.75
2019-03-23T23:03:19.972Z,10.80
2019-03-23T23:05:52.126Z,11.85
2019-03-23T23:08:24.363Z,11.35
2019-03-23T23:10:57.332Z,10.60
2019-03-23T23:13:29.787Z,10.90
2019-03-23T23:16:02.013Z,11.83
2019-03-23T23:18:34.110Z,10.43
2019-03-23T23:21:06.427Z,11.53
2019-03-23T23:23:39.010Z,10.93
2019-03-23T23:26:11.177Z,11.87
2019-03-23T23:28:43.746Z,12.00
2019-03-23T23:31:15.653Z,10.63
2019-03-23T23:33:48.300Z,10.58
2019-03-23T23:36:20.475Z,10.08
2019-03-23T23:38:52.908Z,10.97
2019-03-23T23:41:25.159Z,10.95
2019-03-23T23:43:58.298Z,11.57
2019-03-23T23:46:30.573Z,10.63
2019-03-23T23:49:02.776Z,10.50
2019-03-23T23:51:34.756Z,10.72
2019-03-23T23:54:06.903Z,11.65
2019-03-23T23:56:39.466Z,11.60
2019-03-23T23:59:11.882Z,14.15
